createdAt,value
2022-08-03T00:00:26.382Z,20.10
2022-08-03T00:02:53.641Z,20.07
2022-08-03T00:05:20.687Z,20.05
2022-08-03T00:07:49.411Z,20.04
2022-08-03T00:10:16.692Z,20.00
2022-08-03T00:12:43.619Z,19.99
2022-08-03T00:15:15.112Z,19.94
2022-08-03T00:17:51.967Z,19.93
2022-08-03T00:20:21.359Z,19.89
2022-08-03T00:22:48.409Z,19.84
2022-08-03T00:25:15.202Z,19.81
2022-08-03T00:27:42.012Z,19.75
2022-08-03T00:30:09.533Z,19.74
2022-08-03T00:32:45.026Z,19.76
2022-08-03T00:35:25.966Z,19.73
2022-08-03T00:38:05.733Z,19.66
2022-08-03T00:40:33.165Z,19.65
2022-08-03T00:43:08.026Z,19.66
2022-08-03T00:45:37.645Z,19.62
2022-08-03T00:48:29.507Z,19.61
2022-08-03T00:50:59.071Z,19.55
2022-08-03T00:53:26.237Z,19.52
2022-08-03T00:55:53.125Z,19.51
2022-08-03T00:58:20.155Z,19.47
2022-08-03T01:00:49.361Z,19.48
2022-08-03T01:03:19.080Z,19.47
2022-08-03T01:05:52.209Z,19.38
2022-08-03T01:08:28.244Z,19.39
2022-08-03T01:11:01.849Z,19.39
2022-08-03T01:14:03.716Z,19.45
2022-08-03T01:16:54.953Z,19.41
2022-08-03T01:20:00.475Z,19.39
2022-08-03T01:22:50.020Z,19.37
2022-08-03T01:25:22.445Z,19.40
2022-08-03T01:28:20.705Z,19.36
2022-08-03T01:30:51.587Z,19.37
2022-08-03T01:33:36.098Z,19.33
2022-08-03T01:36:11.866Z,19.29
2022-08-03T01:38:47.661Z,19.31
2022-08-03T01:41:23.198Z,19.37
2022-08-03T01:44:26.193Z,19.34
2022-08-03T01:46:49.285Z,19.34
2022-08-03T01:49:22.874Z,19.34
2022-08-03T01:52:04.316Z,19.33
2022-08-03T01:54:46.703Z,19.20
2022-08-03T01:57:16.455Z,19.23
2022-08-03T01:59:51.116Z,19.18
2022-08-03T02:02:32.652Z,19.19
2022-08-03T02:05:05.161Z,19.07
2022-08-03T02:07:46.515Z,19.00
2022-08-03T02:10:34.256Z,18.93
2022-08-03T02:13:05.326Z,18.89
2022-08-03T02:15:34.288Z,18.88
2022-08-03T02:18:02.279Z,18.82
2022-08-03T02:20:33.302Z,18.75
2022-08-03T02:23:08.928Z,18.68
2022-08-03T02:25:42.460Z,18.65
2022-08-03T02:28:17.608Z,18.63
2022-08-03T02:30:46.600Z,18.56
2022-08-03T02:33:24.992Z,18.52
2022-08-03T02:35:52.951Z,18.48
2022-08-03T02:38:24.305Z,18.47
2022-08-03T02:40:51.608Z,18.42
2022-08-03T02:43:24.373Z,18.39
2022-08-03T02:45:58.515Z,18.33
2022-08-03T02:48:29.575Z,18.29
2022-08-03T02:50:58.560Z,18.22
2022-08-03T02:53:27.406Z,18.16
2022-08-03T02:55:57.267Z,18.11
2022-08-03T02:58:25.098Z,18.08
2022-08-03T03:00:55.591Z,18.07
2022-08-03T03:03:28.299Z,18.03
2022-08-03T03:05:59.778Z,17.96
2022-08-03T03:08:28.616Z,17.96
2022-08-03T03:11:00.341Z,18.03
2022-08-03T03:13:34.466Z,18.00
2022-08-03T03:16:03.215Z,18.01
2022-08-03T03:18:32.265Z,17.94
2022-08-03T03:21:01.082Z,17.98
2022-08-03T03:23:31.594Z,17.92
2022-08-03T03:26:00.314Z,17.98
2022-08-03T03:28:27.498Z,17.94
2022-08-03T03:31:04.897Z,17.87
2022-08-03T03:33:35.615Z,17.85
2022-08-03T03:36:02.807Z,17.81
2022-08-03T03:38:31.037Z,17.77
2022-08-03T03:40:58.045Z,17.72
2022-08-03T03:43:25.389Z,17.70
2022-08-03T03:45:53.713Z,17.68
2022-08-03T03:48:23.297Z,17.65
2022-08-03T03:50:50.178Z,17.67
2022-08-03T03:53:18.280Z,17.66
2022-08-03T03:56:01.595Z,17.65
2022-08-03T03:58:31.915Z,17.64
2022-08-03T04:01:02.352Z,17.62
2022-08-03T04:03:30.613Z,17.61
2022-08-03T04:06:21.391Z,17.65
2022-08-03T04:09:09.502Z,17.68
2022-08-03T04:12:05.446Z,17.68
2022-08-03T04:14:38.769Z,17.69
2022-08-03T04:17:07.767Z,17.68
2022-08-03T04:19:41.988Z,17.68
2022-08-03T04:22:18.083Z,17.72
2022-08-03T04:24:49.147Z,17.71
2022-08-03T04:27:22.988Z,17.73
2022-08-03T04:29:55.890Z,17.85
2022-08-03T04:32:27.772Z,17.84
2022-08-03T04:34:54.770Z,17.95
2022-08-03T04:37:33.728Z,17.97
2022-08-03T04:40:03.722Z,18.10
2022-08-03T04:42:32.200Z,18.19
2022-08-03T04:45:01.673Z,18.30
2022-08-03T04:47:31.875Z,18.37
2022-08-03T04:50:13.483Z,18.47
2022-08-03T04:52:41.044Z,18.49
2022-08-03T04:55:10.976Z,18.52
2022-08-03T04:57:37.705Z,18.62
2022-08-03T05:00:05.888Z,18.59
2022-08-03T05:02:32.613Z,18.62
2022-08-03T05:04:59.637Z,18.71
2022-08-03T05:07:35.473Z,18.94
2022-08-03T05:10:16.109Z,18.94
2022-08-03T05:12:53.906Z,19.02
2022-08-03T05:15:20.666Z,19.09
2022-08-03T05:17:47.197Z,19.08
2022-08-03T05:20:18.844Z,19.21
2022-08-03T05:22:48.423Z,19.35
2022-08-03T05:25:19.754Z,19.40
2022-08-03T05:27:50.133Z,19.58
2022-08-03T05:30:30.829Z,19.69
2022-08-03T05:33:01.376Z,19.84
2022-08-03T05:36:02.485Z,20.08
2022-08-03T05:38:23.978Z,20.25
2022-08-03T05:40:57.602Z,20.35
2022-08-03T05:43:46.267Z,20.42
2022-08-03T05:46:13.479Z,20.47
2022-08-03T05:48:40.609Z,20.70
2022-08-03T05:51:11.647Z,20.85
2022-08-03T05:53:40.139Z,20.86
2022-08-03T05:56:13.616Z,21.03
2022-08-03T05:58:46.140Z,21.20
2022-08-03T06:01:13.012Z,21.51
2022-08-03T06:03:39.780Z,21.54
2022-08-03T06:06:12.032Z,21.62
2022-08-03T06:08:40.122Z,21.76
2022-08-03T06:11:09.044Z,22.11
2022-08-03T06:13:36.035Z,22.20
2022-08-03T06:16:03.073Z,22.33
2022-08-03T06:18:29.725Z,22.41
2022-08-03T06:20:56.558Z,22.49
2022-08-03T06:23:37.870Z,22.83
2022-08-03T06:26:09.829Z,23.22
2022-08-03T06:28:52.599Z,23.48
2022-08-03T06:31:23.863Z,23.98
2022-08-03T06:34:34.446Z,24.49
2022-08-03T06:36:37.710Z,25.79
2022-08-03T06:39:05.419Z,27.28
2022-08-03T06:41:38.011Z,28.59
2022-08-03T06:44:17.241Z,29.61
2022-08-03T06:46:48.674Z,30.71
2022-08-03T06:49:15.469Z,32.02
2022-08-03T06:52:03.112Z,31.89
2022-08-03T06:54:32.946Z,31.98
2022-08-03T06:56:59.939Z,32.84
2022-08-03T07:00:09.848Z,32.72
2022-08-03T07:02:12.873Z,33.35
2022-08-03T07:04:46.025Z,34.15
2022-08-03T07:07:12.435Z,35.41
2022-08-03T07:09:38.859Z,36.38
2022-08-03T07:12:08.394Z,35.71
2022-08-03T07:14:35.075Z,35.50
2022-08-03T07:17:01.768Z,36.52
2022-08-03T07:19:37.877Z,37.18
2022-08-03T07:22:04.751Z,37.38
2022-08-03T07:24:31.453Z,36.28
2022-08-03T07:26:57.985Z,37.00
2022-08-03T07:29:25.051Z,37.34
2022-08-03T07:31:51.939Z,38.54
2022-08-03T07:34:18.439Z,38.93
2022-08-03T07:36:44.856Z,40.00
2022-08-03T07:39:16.462Z,40.82
2022-08-03T07:41:45.635Z,41.91
2022-08-03T07:44:12.354Z,42.32
2022-08-03T07:46:39.025Z,42.81
2022-08-03T07:49:05.585Z,40.96
2022-08-03T07:51:32.130Z,41.44
2022-08-03T07:53:59.101Z,41.51
2022-08-03T07:56:25.794Z,41.38
2022-08-03T07:58:52.841Z,40.51
2022-08-03T08:01:19.625Z,41.37
2022-08-03T08:03:53.234Z,40.57
2022-08-03T08:06:21.019Z,41.01
2022-08-03T08:08:47.681Z,40.15
2022-08-03T08:11:14.451Z,39.17
2022-08-03T08:13:41.111Z,40.70
2022-08-03T08:16:07.800Z,39.15
2022-08-03T08:18:34.510Z,40.55
2022-08-03T08:21:03.245Z,42.01
2022-08-03T08:23:44.165Z,41.41
2022-08-03T08:26:12.796Z,43.19
2022-08-03T08:28:39.595Z,43.70
2022-08-03T08:31:06.705Z,43.88
2022-08-03T08:34:02.758Z,44.67
2022-08-03T08:36:21.268Z,43.66
2022-08-03T08:38:47.801Z,43.94
2022-08-03T08:41:15.146Z,41.67
2022-08-03T08:43:42.308Z,41.04
2022-08-03T08:46:12.252Z,40.72
2022-08-03T08:48:41.964Z,39.74
2022-08-03T08:51:09.846Z,42.66
2022-08-03T08:53:37.663Z,42.17
2022-08-03T08:56:05.443Z,41.92
2022-08-03T08:58:38.644Z,42.27
2022-08-03T09:01:05.762Z,43.40
2022-08-03T09:03:34.201Z,44.66
2022-08-03T09:06:02.207Z,45.33
2022-08-03T09:08:30.367Z,43.73
2022-08-03T09:10:56.917Z,45.75
2022-08-03T09:13:23.370Z,44.99
2022-08-03T09:16:09.533Z,45.92
2022-08-03T09:18:35.948Z,45.27
2022-08-03T09:21:40.974Z,44.51
2022-08-03T09:24:16.530Z,44.75
2022-08-03T09:26:53.720Z,43.42
2022-08-03T09:29:21.501Z,44.12
2022-08-03T09:31:47.934Z,44.72
2022-08-03T09:34:16.508Z,44.80
2022-08-03T09:36:48.170Z,44.78
2022-08-03T09:39:15.628Z,46.22
2022-08-03T09:41:45.760Z,45.21
2022-08-03T09:44:24.442Z,46.02
2022-08-03T09:46:56.882Z,46.27
2022-08-03T09:49:24.713Z,44.95
2022-08-03T09:52:31.568Z,43.08
2022-08-03T09:54:39.358Z,43.86
2022-08-03T09:57:05.804Z,42.54
2022-08-03T09:59:33.463Z,43.69
2022-08-03T10:02:00.596Z,44.34
2022-08-03T10:04:27.427Z,44.78
2022-08-03T10:07:05.394Z,46.24
2022-08-03T10:09:32.139Z,46.08
2022-08-03T10:12:07.808Z,44.96
2022-08-03T10:14:37.313Z,43.64
2022-08-03T10:17:03.862Z,44.71
2022-08-03T10:19:30.302Z,43.47
2022-08-03T10:22:01.514Z,42.78
2022-08-03T10:24:29.883Z,41.68
2022-08-03T10:27:02.754Z,41.85
2022-08-03T10:29:29.705Z,40.94
2022-08-03T10:31:58.882Z,42.57
2022-08-03T10:34:34.999Z,43.02
2022-08-03T10:37:04.382Z,44.29
2022-08-03T10:39:31.326Z,44.13
2022-08-03T10:41:59.865Z,42.14
2022-08-03T10:44:33.758Z,44.17
2022-08-03T10:47:00.828Z,45.22
2022-08-03T10:49:33.576Z,45.88
2022-08-03T10:52:02.611Z,46.55
2022-08-03T10:54:58.456Z,44.20
2022-08-03T10:57:46.415Z,41.34
2022-08-03T11:00:19.090Z,41.40
2022-08-03T11:03:06.241Z,43.38
2022-08-03T11:05:44.335Z,44.31
2022-08-03T11:08:24.721Z,45.45
2022-08-03T11:10:53.476Z,45.09
2022-08-03T11:13:23.037Z,45.32
2022-08-03T11:15:52.169Z,45.56
2022-08-03T11:18:18.947Z,44.28
2022-08-03T11:20:47.875Z,45.82
2022-08-03T11:23:15.721Z,45.01
2022-08-03T11:26:10.701Z,45.06
2022-08-03T11:28:38.965Z,43.80
2022-08-03T11:31:48.589Z,42.70
2022-08-03T11:34:13.125Z,43.22
2022-08-03T11:37:17.871Z,40.21
2022-08-03T11:39:46.634Z,40.95
2022-08-03T11:42:22.173Z,41.49
2022-08-03T11:44:52.794Z,42.31
2022-08-03T11:47:20.756Z,42.19
2022-08-03T11:49:48.587Z,41.88
2022-08-03T11:52:16.543Z,41.09
2022-08-03T11:54:43.405Z,42.19
2022-08-03T11:57:09.923Z,41.72
2022-08-03T11:59:38.647Z,42.55
2022-08-03T12:02:09.268Z,41.99
2022-08-03T12:04:58.540Z,42.40
2022-08-03T12:08:03.735Z,42.26
2022-08-03T12:10:14.986Z,42.42
2022-08-03T12:12:46.414Z,41.97
2022-08-03T12:15:13.453Z,41.62
2022-08-03T12:17:41.498Z,42.07
2022-08-03T12:20:09.927Z,42.24
2022-08-03T12:22:38.481Z,41.61
2022-08-03T12:25:07.631Z,42.09
2022-08-03T12:27:34.662Z,42.11
2022-08-03T12:30:02.207Z,42.04
2022-08-03T12:32:29.805Z,41.60
2022-08-03T12:35:00.850Z,41.79
2022-08-03T12:37:28.046Z,41.93
2022-08-03T12:40:02.329Z,42.10
2022-08-03T12:42:32.747Z,41.93
2022-08-03T12:44:59.278Z,41.85
2022-08-03T12:47:25.716Z,41.57
2022-08-03T12:49:53.616Z,41.91
2022-08-03T12:52:22.743Z,40.75
2022-08-03T12:55:00.252Z,41.30
2022-08-03T12:57:41.036Z,40.82
2022-08-03T13:00:19.924Z,40.53
2022-08-03T13:03:38.877Z,39.66
2022-08-03T13:06:00.240Z,39.73
2022-08-03T13:08:27.264Z,39.82
2022-08-03T13:10:53.674Z,39.68
2022-08-03T13:13:38.634Z,39.54
2022-08-03T13:16:05.274Z,39.47
2022-08-03T13:18:31.738Z,39.18
2022-08-03T13:20:59.418Z,39.33
2022-08-03T13:23:25.939Z,38.68
2022-08-03T13:25:55.200Z,37.88
2022-08-03T13:28:23.246Z,37.24
2022-08-03T13:30:49.829Z,37.15
2022-08-03T13:33:16.711Z,36.69
2022-08-03T13:35:43.158Z,36.95
2022-08-03T13:38:09.660Z,37.23
2022-08-03T13:40:41.402Z,37.07
2022-08-03T13:43:08.963Z,36.04
2022-08-03T13:45:35.530Z,36.16
2022-08-03T13:48:02.058Z,36.63
2022-08-03T13:50:28.613Z,36.80
2022-08-03T13:52:55.054Z,36.73
2022-08-03T13:55:21.515Z,36.76
2022-08-03T13:58:12.119Z,36.91
2022-08-03T14:00:34.541Z,36.86
2022-08-03T14:03:16.597Z,36.97
2022-08-03T14:05:44.092Z,37.40
2022-08-03T14:08:11.736Z,37.85
2022-08-03T14:10:41.372Z,37.85
2022-08-03T14:13:07.888Z,38.10
2022-08-03T14:15:37.673Z,38.28
2022-08-03T14:18:15.616Z,38.15
2022-08-03T14:20:49.005Z,38.20
2022-08-03T14:23:18.231Z,38.36
2022-08-03T14:25:52.539Z,37.29
2022-08-03T14:28:23.879Z,36.63
2022-08-03T14:30:51.569Z,37.23
2022-08-03T14:33:18.085Z,37.51
2022-08-03T14:35:44.517Z,37.37
2022-08-03T14:38:10.985Z,37.25
2022-08-03T14:40:37.785Z,37.13
2022-08-03T14:43:04.260Z,37.56
2022-08-03T14:45:31.127Z,37.91
2022-08-03T14:50:24.384Z,38.26
2022-08-03T14:50:51.035Z,38.37
2022-08-03T14:53:18.855Z,38.14
2022-08-03T14:55:49.611Z,38.19
2022-08-03T14:58:19.774Z,37.90
2022-08-03T15:00:47.900Z,37.44
2022-08-03T15:03:16.592Z,37.71
2022-08-03T15:05:45.114Z,37.86
2022-08-03T15:08:11.575Z,37.79
2022-08-03T15:10:40.492Z,37.86
2022-08-03T15:13:11.553Z,38.12
2022-08-03T15:15:38.013Z,38.19
2022-08-03T15:18:04.678Z,38.22
2022-08-03T15:20:43.358Z,38.09
2022-08-03T15:23:13.690Z,38.26
2022-08-03T15:26:28.842Z,38.35
2022-08-03T15:28:26.658Z,38.30
2022-08-03T15:30:53.191Z,38.08
2022-08-03T15:33:19.753Z,38.08
2022-08-03T15:35:47.321Z,37.80
2022-08-03T15:38:13.831Z,37.93
2022-08-03T15:40:40.478Z,37.77
2022-08-03T15:43:07.054Z,37.97
2022-08-03T15:45:36.299Z,37.87
2022-08-03T15:48:05.299Z,37.64
2022-08-03T15:50:31.717Z,37.78
2022-08-03T15:52:58.194Z,37.81
2022-08-03T15:55:24.685Z,37.86
2022-08-03T15:59:04.906Z,37.87
2022-08-03T16:00:38.179Z,37.80
2022-08-03T16:03:04.935Z,37.88
2022-08-03T16:05:31.944Z,37.88
2022-08-03T16:08:03.586Z,37.81
2022-08-03T16:10:31.397Z,37.61
2022-08-03T16:13:00.594Z,37.26
2022-08-03T16:15:27.342Z,37.07
2022-08-03T16:17:54.310Z,37.15
2022-08-03T16:20:31.152Z,36.21
2022-08-03T16:23:06.287Z,36.27
2022-08-03T16:25:41.802Z,36.89
2022-08-03T16:28:13.802Z,36.62
2022-08-03T16:30:42.678Z,36.63
2022-08-03T16:33:09.925Z,35.78
2022-08-03T16:35:36.436Z,36.46
2022-08-03T16:38:09.241Z,36.50
2022-08-03T16:40:36.371Z,36.55
2022-08-03T16:43:18.157Z,36.49
2022-08-03T16:45:45.340Z,36.65
2022-08-03T16:48:11.852Z,36.61
2022-08-03T16:50:39.412Z,36.82
2022-08-03T16:53:09.241Z,36.77
2022-08-03T16:55:43.429Z,36.55
2022-08-03T16:58:19.513Z,36.63
2022-08-03T17:01:10.746Z,36.48
2022-08-03T17:04:01.412Z,36.26
2022-08-03T17:06:33.812Z,35.82
2022-08-03T17:09:00.677Z,35.71
2022-08-03T17:11:27.320Z,35.38
2022-08-03T17:13:56.575Z,35.47
2022-08-03T17:16:25.054Z,35.44
2022-08-03T17:18:58.464Z,35.41
2022-08-03T17:21:30.888Z,35.46
2022-08-03T17:24:12.434Z,35.36
2022-08-03T17:26:44.727Z,35.30
2022-08-03T17:29:13.171Z,35.27
2022-08-03T17:31:48.982Z,35.30
2022-08-03T17:34:16.991Z,35.00
2022-08-03T17:39:55.603Z,34.34
2022-08-03T17:42:30.241Z,34.21
2022-08-03T17:45:02.348Z,33.92
2022-08-03T17:47:41.493Z,33.63
2022-08-03T17:50:24.211Z,33.47
2022-08-03T17:53:01.106Z,33.26
2022-08-03T17:55:54.863Z,33.16
2022-08-03T17:58:33.185Z,32.94
2022-08-03T18:02:00.458Z,32.80
2022-08-03T18:04:10.633Z,32.61
2022-08-03T18:06:38.946Z,32.36
2022-08-03T18:10:04.392Z,32.21
2022-08-03T18:12:14.476Z,32.05
2022-08-03T18:14:57.133Z,31.96
2022-08-03T18:17:55.108Z,31.86
2022-08-03T18:20:32.160Z,31.68
2022-08-03T18:23:04.770Z,31.55
2022-08-03T18:25:45.194Z,31.43
2022-08-03T18:28:18.865Z,31.22
2022-08-03T18:30:54.883Z,31.01
2022-08-03T18:34:18.820Z,30.88
2022-08-03T18:36:11.311Z,30.72
2022-08-03T18:38:44.617Z,30.57
2022-08-03T18:41:20.726Z,30.42
2022-08-03T18:44:08.542Z,30.33
2022-08-03T18:46:54.146Z,30.19
2022-08-03T18:49:42.500Z,29.98
2022-08-03T18:52:27.671Z,29.83
2022-08-03T18:55:19.770Z,29.69
2022-08-03T18:57:52.769Z,29.54
2022-08-03T19:00:24.497Z,29.42
2022-08-03T19:03:12.466Z,29.37
2022-08-03T19:06:13.359Z,29.35
2022-08-03T19:09:45.844Z,29.26
2022-08-03T19:12:30.669Z,29.16
2022-08-03T19:15:12.791Z,29.02
2022-08-03T19:17:53.274Z,28.90
2022-08-03T19:20:28.146Z,28.75
2022-08-03T19:22:56.452Z,28.74
2022-08-03T19:25:34.983Z,28.58
2022-08-03T19:28:04.231Z,28.43
2022-08-03T19:30:39.016Z,28.26
2022-08-03T19:33:11.175Z,28.22
2022-08-03T19:35:51.610Z,28.14
2022-08-03T19:38:28.454Z,28.10
2022-08-03T19:41:02.488Z,28.05
2022-08-03T19:43:33.028Z,28.25
2022-08-03T19:46:17.018Z,28.14
2022-08-03T19:48:51.994Z,28.10
2022-08-03T19:51:19.269Z,28.07
2022-08-03T19:54:06.053Z,28.05
2022-08-03T19:56:36.280Z,28.01
2022-08-03T19:59:13.109Z,27.97
2022-08-03T20:01:50.323Z,27.95
2022-08-03T20:04:17.697Z,28.02
2022-08-03T20:06:49.649Z,27.94
2022-08-03T20:09:17.483Z,27.98
2022-08-03T20:14:31.026Z,27.90
2022-08-03T20:16:58.350Z,27.90
2022-08-03T20:19:24.800Z,27.81
2022-08-03T20:21:59.531Z,27.71
2022-08-03T20:24:28.044Z,27.60
2022-08-03T20:26:57.822Z,27.53
2022-08-03T20:30:05.301Z,27.52
2022-08-03T20:32:24.323Z,27.41
2022-08-03T20:34:51.297Z,27.35
2022-08-03T20:37:19.535Z,27.35
2022-08-03T20:39:49.431Z,27.27
2022-08-03T20:42:21.445Z,27.20
2022-08-03T20:45:06.096Z,27.12
2022-08-03T20:47:35.883Z,27.02
2022-08-03T20:50:04.378Z,26.99
2022-08-03T20:52:35.004Z,26.91
2022-08-03T20:55:12.780Z,26.82
2022-08-03T20:57:42.520Z,26.76
2022-08-03T21:00:17.800Z,26.66
2022-08-03T21:02:44.564Z,26.56
2022-08-03T21:05:11.396Z,26.47
2022-08-03T21:08:06.133Z,26.38
2022-08-03T21:10:37.965Z,26.29
2022-08-03T21:13:03.678Z,27.97
2022-08-03T21:13:17.382Z,26.24
2022-08-03T21:16:12.890Z,26.11
2022-08-03T21:18:38.032Z,26.05
2022-08-03T21:21:06.397Z,25.98
2022-08-03T21:23:40.322Z,25.91
2022-08-03T21:26:17.416Z,25.82
2022-08-03T21:28:46.261Z,25.74
2022-08-03T21:31:13.932Z,25.67
2022-08-03T21:33:40.995Z,25.71
2022-08-03T21:36:16.625Z,25.65
2022-08-03T21:38:44.051Z,25.56
2022-08-03T21:41:18.931Z,25.47
2022-08-03T21:43:45.491Z,25.39
2022-08-03T21:46:13.067Z,25.41
2022-08-03T21:48:41.572Z,25.34
2022-08-03T21:51:09.637Z,25.28
2022-08-03T21:54:02.540Z,25.24
2022-08-03T21:56:26.259Z,25.17
2022-08-03T21:58:55.555Z,25.09
2022-08-03T22:01:24.741Z,25.20
2022-08-03T22:03:55.561Z,25.14
2022-08-03T22:06:27.066Z,25.02
2022-08-03T22:08:54.472Z,24.92
2022-08-03T22:11:21.470Z,24.90
2022-08-03T22:13:48.133Z,24.84
2022-08-03T22:16:15.142Z,24.79
2022-08-03T22:18:44.249Z,24.70
2022-08-03T22:21:13.350Z,24.64
2022-08-03T22:23:43.021Z,24.55
2022-08-03T22:26:18.231Z,24.48
2022-08-03T22:29:06.319Z,24.40
2022-08-03T22:31:57.498Z,24.35
2022-08-03T22:34:25.858Z,24.25
2022-08-03T22:36:56.585Z,24.19
2022-08-03T22:39:27.538Z,24.15
2022-08-03T22:41:55.285Z,24.12
2022-08-03T22:44:22.060Z,24.07
2022-08-03T22:46:48.756Z,24.08
2022-08-03T22:49:15.297Z,23.96
2022-08-03T22:51:42.286Z,23.98
2022-08-03T22:54:11.092Z,24.04
2022-08-03T22:56:38.691Z,23.93
2022-08-03T22:59:41.331Z,23.89
2022-08-03T23:01:56.486Z,23.82
2022-08-03T23:04:24.607Z,23.83
2022-08-03T23:06:51.606Z,23.80
2022-08-03T23:09:19.663Z,23.77
2022-08-03T23:11:46.915Z,23.71
2022-08-03T23:14:16.712Z,23.63
2022-08-03T23:16:45.174Z,23.65
2022-08-03T23:19:17.177Z,23.60
2022-08-03T23:22:02.976Z,23.53
2022-08-03T23:24:36.105Z,23.53
2022-08-03T23:27:05.176Z,23.49
2022-08-03T23:29:35.220Z,23.47
2022-08-03T23:45:09.818Z,23.13
2022-08-03T23:47:47.305Z,23.12
2022-08-03T23:50:15.392Z,23.11
2022-08-03T23:53:09.315Z,23.08
2022-08-03T23:55:47.528Z,23.02
2022-08-03T23:58:26.142Z,22.97
